Time;durP1;ratioP1;P1;durP2;ratioP2;P2;SDS_P1;SDS_P2;PMS_P1;PMS_P2;Temp;Humidity;BMP_temperature;BMP_pressure;BME280_temperature;BME280_humidity;BME280_pressure;Samples;Min_cycle;Max_cycle;Signal;HPM_P1;HPM_P2
2022/07/17 00:00:00;;;;;;;3.35;1.17;;;14.60;99.90;;;;;;5078040;28;20040;-70
2022/07/17 00:02:26;;;;;;;3.60;1.15;;;14.70;99.90;;;;;;5079102;28;20041;-70
2022/07/17 00:04:54;;;;;;;5.18;1.00;;;14.60;99.90;;;;;;5079305;28;20416;-70
2022/07/17 00:07:23;;;;;;;4.25;1.30;;;14.70;99.90;;;;;;5079366;28;20047;-70
2022/07/17 00:09:49;;;;;;;4.55;1.08;;;14.60;99.90;;;;;;5077670;28;20044;-70
2022/07/17 00:12:14;;;;;;;6.68;1.20;;;14.60;99.90;;;;;;5079129;28;20115;-70
2022/07/17 00:14:40;;;;;;;2.10;1.10;;;14.50;99.90;;;;;;5094609;28;20051;-70
2022/07/17 00:17:06;;;;;;;2.67;1.00;;;14.40;99.90;;;;;;5078886;28;20036;-70
2022/07/17 00:19:32;;;;;;;3.40;1.00;;;14.30;99.90;;;;;;5078766;28;20055;-70
2022/07/17 00:21:58;;;;;;;3.08;1.08;;;14.30;99.90;;;;;;5078817;28;20052;-70
2022/07/17 00:24:23;;;;;;;3.53;1.30;;;14.40;99.90;;;;;;5077456;28;20044;-70
2022/07/17 00:26:50;;;;;;;2.83;1.27;;;14.40;99.90;;;;;;5078726;28;21459;-71
2022/07/17 00:29:17;;;;;;;4.30;1.30;;;14.40;99.90;;;;;;5076976;28;20051;-70
2022/07/17 00:31:43;;;;;;;4.10;1.20;;;14.30;99.90;;;;;;5078908;28;20348;-70
2022/07/17 00:34:11;;;;;;;3.63;1.17;;;14.40;99.90;;;;;;5078397;28;20421;-70
2022/07/17 00:36:37;;;;;;;5.75;1.00;;;14.30;99.90;;;;;;5077383;28;20044;-70
2022/07/17 00:39:03;;;;;;;2.33;1.10;;;14.40;99.90;;;;;;5077242;28;20040;-71
2022/07/17 00:41:30;;;;;;;4.68;1.10;;;14.30;99.90;;;;;;5078188;28;20066;-70
2022/07/17 00:44:03;;;;;;;3.78;1.25;;;14.30;99.90;;;;;;5078552;28;20029;-70
2022/07/17 00:46:29;;;;;;;2.53;0.88;;;14.20;99.90;;;;;;5078270;28;20089;-70
2022/07/17 00:48:54;;;;;;;2.15;0.75;;;14.10;99.90;;;;;;5077227;28;20032;-71
2022/07/17 00:51:20;;;;;;;3.45;0.90;;;14.00;99.90;;;;;;5077440;28;20051;-70
2022/07/17 00:53:47;;;;;;;3.80;1.42;;;14.00;99.90;;;;;;5077848;28;20041;-70
2022/07/17 00:56:16;;;;;;;3.28;1.48;;;13.90;99.90;;;;;;5078278;28;20357;-70
2022/07/17 00:58:43;;;;;;;2.83;1.42;;;13.90;99.90;;;;;;5077589;28;20119;-70
2022/07/17 01:01:09;;;;;;;2.95;1.60;;;13.90;99.90;;;;;;5077139;28;20109;-70
2022/07/17 01:03:34;;;;;;;3.30;1.60;;;13.90;99.90;;;;;;5077861;28;20418;-70
2022/07/17 01:06:01;;;;;;;3.75;1.52;;;13.90;99.90;;;;;;5076777;28;20044;-69
2022/07/17 01:08:27;;;;;;;5.55;1.80;;;13.80;99.90;;;;;;5076606;28;20049;-70
2022/07/17 01:10:53;;;;;;;4.45;1.52;;;13.80;99.90;;;;;;5077701;28;20048;-70
2022/07/17 01:13:19;;;;;;;5.55;2.15;;;13.80;99.90;;;;;;5077006;28;20045;-70
2022/07/17 01:15:45;;;;;;;4.18;1.70;;;13.80;99.90;;;;;;5077642;28;20044;-70
2022/07/17 01:18:14;;;;;;;5.63;2.00;;;13.80;99.90;;;;;;5077736;28;20337;-70
2022/07/17 01:20:42;;;;;;;3.67;1.80;;;13.80;99.90;;;;;;5076286;28;20080;-70
2022/07/17 01:23:08;;;;;;;6.13;2.30;;;13.80;99.90;;;;;;5076701;28;20361;-70
2022/07/17 01:25:34;;;;;;;3.70;1.67;;;13.80;99.90;;;;;;5077431;28;20040;-70
2022/07/17 01:28:01;;;;;;;6.70;2.00;;;13.80;99.90;;;;;;5076196;28;20052;-70
2022/07/17 01:30:27;;;;;;;4.95;1.83;;;13.80;99.90;;;;;;5075891;28;20368;-70
2022/07/17 01:32:53;;;;;;;3.25;1.65;;;13.70;99.90;;;;;;5077316;28;20075;-70
2022/07/17 01:35:19;;;;;;;7.03;1.90;;;13.60;99.90;;;;;;5092987;28;20425;-71
2022/07/17 01:37:48;;;;;;;3.90;2.10;;;13.60;99.90;;;;;;5076432;28;20028;-70
2022/07/17 01:40:16;;;;;;;6.18;2.47;;;13.60;99.90;;;;;;5093285;28;20325;-70
2022/07/17 01:42:44;;;;;;;6.25;2.22;;;13.60;99.90;;;;;;5076025;28;20048;-70
2022/07/17 01:45:11;;;;;;;4.20;2.20;;;13.50;99.90;;;;;;5077139;28;20107;-71
2022/07/17 01:47:37;;;;;;;8.50;2.13;;;13.60;99.90;;;;;;5075952;28;20102;-70
2022/07/17 01:50:03;;;;;;;7.63;2.17;;;13.50;99.90;;;;;;5076844;28;20044;-70
2022/07/17 01:52:29;;;;;;;2.83;1.65;;;13.50;99.90;;;;;;5076874;28;20492;-70
2022/07/17 01:54:55;;;;;;;4.30;1.98;;;13.50;99.90;;;;;;5076773;28;20128;-70
2022/07/17 01:57:21;;;;;;;6.95;2.00;;;13.60;99.90;;;;;;5076292;28;20048;-70
2022/07/17 01:59:47;;;;;;;3.88;2.10;;;13.60;99.90;;;;;;5075576;28;20437;-70
2022/07/17 02:02:15;;;;;;;3.80;1.70;;;13.60;99.90;;;;;;5075736;28;20044;-70
2022/07/17 02:04:44;;;;;;;4.57;2.20;;;13.70;99.90;;;;;;5075557;28;20434;-70
2022/07/17 02:07:10;;;;;;;4.18;1.98;;;13.60;99.90;;;;;;5076908;28;20041;-70
2022/07/17 02:09:36;;;;;;;4.25;2.05;;;13.50;99.90;;;;;;5076844;28;20041;-70
2022/07/17 02:12:02;;;;;;;3.45;1.90;;;13.40;99.90;;;;;;5075808;28;20437;-70
2022/07/17 02:14:28;;;;;;;6.20;2.10;;;13.40;99.90;;;;;;5076661;28;20452;-71
2022/07/17 02:16:54;;;;;;;3.65;1.95;;;13.50;99.90;;;;;;5076520;28;20051;-70
2022/07/17 02:19:20;;;;;;;7.05;2.20;;;13.50;99.90;;;;;;5075733;28;20056;-70
2022/07/17 02:21:46;;;;;;;5.53;2.25;;;13.60;99.90;;;;;;5092319;28;20040;-70
2022/07/17 02:24:12;;;;;;;3.35;2.10;;;13.50;99.90;;;;;;5076465;28;20060;-70
2022/07/17 02:26:38;;;;;;;5.00;2.20;;;13.50;99.90;;;;;;5075487;28;20351;-70
2022/07/17 02:29:04;;;;;;;5.15;2.50;;;13.60;99.90;;;;;;5076301;28;20372;-70
2022/07/17 02:31:29;;;;;;;2.60;1.77;;;13.60;99.90;;;;;;5076439;28;20033;-70
2022/07/17 02:33:55;;;;;;;5.72;2.10;;;13.70;99.90;;;;;;5075615;28;20306;-70
2022/07/17 02:36:21;;;;;;;5.05;2.05;;;13.70;99.90;;;;;;5076331;28;20469;-70
2022/07/17 02:38:46;;;;;;;3.35;1.80;;;13.70;99.90;;;;;;5075504;28;20119;-70
2022/07/17 02:41:12;;;;;;;5.32;2.00;;;13.60;99.90;;;;;;5075488;28;20040;-70
2022/07/17 02:43:38;;;;;;;3.72;2.08;;;13.60;99.90;;;;;;5075230;28;20045;-70
2022/07/17 02:46:03;;;;;;;4.63;2.00;;;13.50;99.90;;;;;;5076344;28;20045;-70
2022/07/17 02:48:29;;;;;;;4.45;2.10;;;13.60;99.90;;;;;;5058313;28;20040;-70
2022/07/17 02:50:55;;;;;;;3.53;2.08;;;13.40;99.90;;;;;;5075268;28;20123;-70
2022/07/17 02:53:21;;;;;;;6.13;2.78;;;13.40;99.90;;;;;;5076245;28;20037;-70
2022/07/17 02:55:46;;;;;;;4.65;2.20;;;13.40;99.90;;;;;;5092291;28;20388;-70
2022/07/17 02:58:12;;;;;;;4.93;2.15;;;13.30;99.90;;;;;;5091966;28;20368;-70
2022/07/17 03:00:38;;;;;;;4.72;2.20;;;13.30;99.90;;;;;;5075971;28;20337;-70
2022/07/17 03:03:03;;;;;;;2.88;1.58;;;13.30;99.90;;;;;;5076013;28;20440;-70
2022/07/17 03:05:29;;;;;;;7.60;2.35;;;13.40;99.90;;;;;;5076040;28;20036;-70
2022/07/17 03:07:55;;;;;;;5.80;2.13;;;13.40;99.90;;;;;;5076346;28;20116;-70
2022/07/17 03:10:20;;;;;;;5.85;1.80;;;13.40;99.90;;;;;;5091746;28;20052;-70
2022/07/17 03:12:46;;;;;;;3.20;1.60;;;13.50;99.90;;;;;;5075156;28;20036;-70
2022/07/17 03:15:12;;;;;;;4.72;2.08;;;13.40;99.90;;;;;;5074911;28;20047;-70
2022/07/17 03:17:39;;;;;;;7.38;2.10;;;13.40;99.90;;;;;;5075942;28;20432;-70
2022/07/17 03:20:06;;;;;;;5.03;2.03;;;13.40;99.90;;;;;;5075936;28;20421;-70
2022/07/17 03:22:32;;;;;;;7.10;2.30;;;13.30;99.90;;;;;;5075859;28;20438;-69
2022/07/17 03:24:57;;;;;;;3.47;1.85;;;13.40;99.90;;;;;;5076191;28;20124;-70
2022/07/17 03:27:23;;;;;;;7.10;2.20;;;13.40;99.90;;;;;;5075602;28;20061;-70
2022/07/17 03:29:49;;;;;;;2.80;1.75;;;13.20;99.90;;;;;;5091331;28;20040;-70
2022/07/17 03:32:14;;;;;;;4.20;2.05;;;13.30;99.90;;;;;;5075825;28;20040;-70
2022/07/17 03:34:40;;;;;;;5.53;2.10;;;13.30;99.90;;;;;;5077182;28;20036;-70
2022/07/17 03:37:06;;;;;;;4.85;1.88;;;13.30;99.90;;;;;;5078669;28;20036;-70
2022/07/17 03:39:32;;;;;;;6.97;3.25;;;13.20;99.90;;;;;;5079637;28;20336;-70
2022/07/17 03:41:57;;;;;;;4.43;2.00;;;13.10;99.90;;;;;;5079662;28;20432;-70
2022/07/17 03:44:23;;;;;;;4.13;2.38;;;13.10;99.90;;;;;;5079343;28;20040;-69
2022/07/17 03:46:49;;;;;;;5.63;2.50;;;13.20;99.90;;;;;;5078565;28;20040;-70
2022/07/17 03:49:14;;;;;;;4.78;2.40;;;13.20;99.90;;;;;;5079387;28;20055;-70
2022/07/17 03:51:40;;;;;;;3.90;2.40;;;13.20;99.90;;;;;;5079495;28;20037;-70
2022/07/17 03:54:06;;;;;;;4.80;2.80;;;13.20;99.90;;;;;;5079413;28;20033;-70
2022/07/17 03:56:31;;;;;;;8.05;2.83;;;13.20;99.90;;;;;;5079221;28;20043;-70
2022/07/17 03:58:57;;;;;;;6.32;2.70;;;13.20;99.90;;;;;;5078781;28;20037;-70
2022/07/17 04:01:23;;;;;;;6.18;2.78;;;13.30;99.90;;;;;;5079256;28;20044;-70
2022/07/17 04:03:48;;;;;;;6.55;2.47;;;13.30;99.90;;;;;;5077891;28;20150;-70
2022/07/17 04:06:14;;;;;;;4.93;2.50;;;13.40;99.90;;;;;;5078071;28;20040;-71
2022/07/17 04:08:40;;;;;;;7.90;3.22;;;13.40;99.90;;;;;;5079683;28;20158;-70
2022/07/17 04:11:06;;;;;;;7.65;2.83;;;13.50;99.90;;;;;;5061161;28;20040;-70
2022/07/17 04:13:31;;;;;;;6.93;2.65;;;13.60;99.90;;;;;;5078918;28;20047;-70
2022/07/17 04:15:57;;;;;;;7.97;2.85;;;13.70;99.90;;;;;;5078843;28;20088;-71
2022/07/17 04:18:28;;;;;;;5.35;3.00;;;13.80;99.90;;;;;;5078023;28;20041;-70
2022/07/17 04:20:56;;;;;;;7.05;2.72;;;13.80;99.90;;;;;;5078690;28;20051;-70
2022/07/17 04:23:22;;;;;;;6.22;2.83;;;13.80;99.90;;;;;;5077622;28;20349;-70
2022/07/17 04:25:48;;;;;;;5.00;2.85;;;13.80;99.90;;;;;;5078496;28;20048;-70
2022/07/17 04:28:14;;;;;;;8.38;3.15;;;14.00;99.90;;;;;;5077308;28;20059;-70
2022/07/17 04:30:40;;;;;;;8.52;2.97;;;14.00;99.90;;;;;;5078011;28;20487;-70
2022/07/17 04:33:06;;;;;;;7.45;3.00;;;14.10;99.90;;;;;;5078478;28;20040;-70
2022/07/17 04:35:32;;;;;;;5.43;2.85;;;14.10;99.90;;;;;;5077581;28;20048;-70
2022/07/17 04:37:58;;;;;;;7.07;2.90;;;14.20;99.90;;;;;;5078369;28;20489;-70
2022/07/17 04:40:23;;;;;;;5.18;3.00;;;14.30;99.90;;;;;;5078646;28;20076;-70
2022/07/17 04:42:49;;;;;;;8.68;3.50;;;14.30;99.90;;;;;;5077187;28;20040;-70
2022/07/17 04:45:15;;;;;;;9.70;3.22;;;14.40;99.90;;;;;;5077913;28;20051;-70
2022/07/17 04:47:41;;;;;;;6.75;3.15;;;14.40;99.90;;;;;;5078074;28;20041;-70
2022/07/17 04:50:08;;;;;;;5.78;3.00;;;14.40;99.90;;;;;;5078251;28;20329;-70
2022/07/17 04:52:34;;;;;;;6.43;3.05;;;14.50;99.90;;;;;;5078285;28;20063;-69
2022/07/17 04:55:00;;;;;;;4.25;2.63;;;14.50;99.90;;;;;;5076971;28;20032;-70
2022/07/17 04:57:26;;;;;;;6.78;2.60;;;14.50;99.90;;;;;;5077214;28;20131;-70
2022/07/17 04:59:52;;;;;;;6.90;2.60;;;14.50;99.90;;;;;;5077491;28;20392;-70
2022/07/17 05:02:18;;;;;;;7.90;2.33;;;14.60;99.90;;;;;;5076954;28;20048;-69
2022/07/17 05:04:43;;;;;;;6.95;2.25;;;14.60;99.90;;;;;;5077921;28;20039;-70
2022/07/17 05:07:09;;;;;;;6.03;2.25;;;14.60;99.90;;;;;;5077807;28;20040;-70
2022/07/17 05:09:35;;;;;;;6.15;2.25;;;14.70;99.90;;;;;;5076807;28;20036;-70
2022/07/17 05:12:00;;;;;;;7.97;2.38;;;14.80;99.90;;;;;;5076803;28;20032;-70
2022/07/17 05:14:26;;;;;;;5.63;2.00;;;14.90;99.90;;;;;;5077908;28;20039;-71
2022/07/17 05:16:52;;;;;;;6.95;2.17;;;15.00;99.90;;;;;;5059809;28;20040;-70
2022/07/17 05:19:18;;;;;;;5.15;2.22;;;15.10;99.90;;;;;;5077836;28;20082;-70
2022/07/17 05:21:43;;;;;;;8.43;2.33;;;15.10;99.90;;;;;;5076409;28;20093;-70
2022/07/17 05:24:09;;;;;;;5.40;1.95;;;15.20;99.90;;;;;;5093641;28;20326;-70
2022/07/17 05:26:35;;;;;;;9.25;2.22;;;15.30;99.90;;;;;;5077163;28;20040;-70
2022/07/17 05:29:00;;;;;;;6.80;2.35;;;15.20;99.90;;;;;;5109949;28;20044;-70
2022/07/17 05:31:26;;;;;;;6.72;2.25;;;15.30;99.90;;;;;;5077635;28;20427;-69
2022/07/17 05:33:52;;;;;;;6.20;1.77;;;15.30;99.90;;;;;;5077400;28;20041;-70
2022/07/17 05:36:18;;;;;;;6.10;2.22;;;15.40;99.90;;;;;;5077502;28;20044;-69
2022/07/17 05:38:43;;;;;;;7.25;2.47;;;15.40;99.90;;;;;;5076235;28;20421;-70
2022/07/17 05:41:09;;;;;;;6.78;1.88;;;15.40;99.90;;;;;;5077472;28;20040;-70
2022/07/17 05:43:35;;;;;;;6.68;2.42;;;15.50;99.90;;;;;;5076222;28;20070;-70
2022/07/17 05:46:00;;;;;;;6.22;2.00;;;15.50;99.90;;;;;;5077283;28;20067;-71
2022/07/17 05:48:27;;;;;;;7.85;2.92;;;15.50;99.90;;;;;;5077185;28;20037;-71
2022/07/17 05:50:52;;;;;;;5.60;1.95;;;15.60;99.90;;;;;;5077040;28;20040;-71
2022/07/17 05:53:18;;;;;;;8.15;1.80;;;15.70;99.90;;;;;;5076041;28;20048;-70
2022/07/17 05:55:44;;;;;;;7.20;2.30;;;15.70;99.90;;;;;;5076102;28;20032;-70
2022/07/17 05:58:10;;;;;;;6.85;1.83;;;15.90;99.90;;;;;;5076355;28;20090;-71
2022/07/17 06:00:36;;;;;;;10.73;2.47;;;16.10;99.90;;;;;;5075569;28;20131;-71
2022/07/17 06:03:02;;;;;;;4.07;1.48;;;16.30;99.90;;;;;;5075838;28;20040;-71
2022/07/17 06:05:28;;;;;;;8.13;1.55;;;16.50;99.90;;;;;;5076696;28;20039;-71
2022/07/17 06:07:56;;;;;;;4.57;1.35;;;16.80;99.90;;;;;;5075728;28;20041;-71
2022/07/17 06:10:22;;;;;;;9.25;2.05;;;17.00;99.90;;;;;;5075590;28;20333;-71
2022/07/17 06:12:49;;;;;;;9.52;1.80;;;17.00;99.90;;;;;;5075702;28;20036;-71
2022/07/17 06:15:15;;;;;;;7.25;1.45;;;17.10;99.90;;;;;;5076871;28;20039;-71
2022/07/17 06:17:41;;;;;;;6.20;1.63;;;17.00;99.90;;;;;;5076648;28;20032;-71
2022/07/17 06:20:07;;;;;;;9.55;1.83;;;17.10;99.90;;;;;;5075561;28;20128;-70
2022/07/17 06:22:32;;;;;;;8.90;1.85;;;16.90;99.90;;;;;;5075453;28;20487;-70
2022/07/17 06:24:58;;;;;;;6.68;1.40;;;17.20;99.90;;;;;;5076873;28;20123;-70
2022/07/17 06:27:24;;;;;;;4.55;1.48;;;17.40;99.90;;;;;;5092202;28;20044;-71
2022/07/17 06:29:50;;;;;;;3.65;1.30;;;17.50;99.90;;;;;;5076175;28;20075;-71
2022/07/17 06:32:16;;;;;;;11.75;1.20;;;17.50;99.90;;;;;;5092582;28;20040;-70
2022/07/17 06:34:42;;;;;;;6.72;1.10;;;17.50;99.90;;;;;;5076619;28;20040;-71
2022/07/17 06:37:08;;;;;;;9.50;1.35;;;17.50;99.90;;;;;;5076430;28;20303;-70
2022/07/17 06:39:33;;;;;;;6.15;0.93;;;17.50;99.90;;;;;;5075633;28;20047;-71
2022/07/17 06:41:59;;;;;;;7.65;1.23;;;17.70;99.90;;;;;;5092420;28;20051;-71
2022/07/17 06:44:25;;;;;;;5.68;1.10;;;18.00;99.90;;;;;;5076233;28;20036;-71
2022/07/17 06:46:51;;;;;;;7.38;0.82;;;18.00;99.90;;;;;;5075546;28;20102;-70
2022/07/17 06:49:16;;;;;;;6.95;1.20;;;18.20;99.90;;;;;;5075322;28;20040;-71
2022/07/17 06:51:45;;;;;;;6.03;1.13;;;18.30;99.90;;;;;;5076284;28;20054;-70
2022/07/17 06:54:14;;;;;;;7.18;1.30;;;18.40;99.90;;;;;;5075304;28;20409;-70
2022/07/17 06:56:40;;;;;;;5.70;1.10;;;18.30;99.90;;;;;;5076123;28;20039;-71
2022/07/17 06:59:09;;;;;;;3.97;0.80;;;18.20;99.90;;;;;;5076008;28;20111;-70
2022/07/17 07:01:36;;;;;;;6.97;1.10;;;18.20;99.90;;;;;;5076069;28;20433;-71
2022/07/17 07:04:03;;;;;;;5.03;0.80;;;18.30;99.90;;;;;;5076451;28;20056;-71
2022/07/17 07:06:29;;;;;;;4.72;1.17;;;18.50;99.90;;;;;;5075311;28;20048;-70
2022/07/17 07:08:55;;;;;;;7.05;0.95;;;18.60;99.90;;;;;;5076688;28;20037;-71
2022/07/17 07:11:21;;;;;;;6.03;1.15;;;18.60;99.90;;;;;;5078942;28;20460;-71
2022/07/17 07:13:47;;;;;;;6.50;1.10;;;18.60;99.90;;;;;;5079892;28;20078;-71
2022/07/17 07:16:13;;;;;;;5.38;1.30;;;18.70;99.90;;;;;;5080263;28;20044;-71
2022/07/17 07:18:38;;;;;;;3.10;1.00;;;18.80;99.90;;;;;;5079794;28;20344;-71
2022/07/17 07:21:04;;;;;;;5.75;0.93;;;18.60;99.90;;;;;;5080118;28;20040;-70
2022/07/17 07:23:30;;;;;;;5.90;0.90;;;18.60;99.90;;;;;;5095626;28;20029;-71
2022/07/17 07:25:55;;;;;;;6.28;1.20;;;18.70;99.90;;;;;;5079857;28;20409;-71
2022/07/17 07:28:21;;;;;;;3.33;0.70;;;18.80;99.90;;;;;;5079468;28;20437;-71
2022/07/17 07:30:47;;;;;;;4.50;1.13;;;18.80;99.90;;;;;;5078103;28;20044;-71
2022/07/17 07:33:13;;;;;;;8.27;1.23;;;18.50;99.90;;;;;;5078540;28;20336;-70
2022/07/17 07:35:39;;;;;;;4.28;1.00;;;18.30;99.90;;;;;;5078661;28;20039;-71
2022/07/17 07:38:04;;;;;;;4.97;0.90;;;18.00;99.90;;;;;;5087953;28;20079;-72
2022/07/17 07:40:30;;;;;;;6.05;0.80;;;18.00;99.90;;;;;;5131413;27;20143;-71
2022/07/17 07:42:57;;;;;;;7.68;1.20;;;18.10;99.90;;;;;;5098977;28;20040;-71
2022/07/17 07:45:23;;;;;;;6.35;1.02;;;18.00;99.90;;;;;;5098522;28;20451;-71
2022/07/17 07:47:50;;;;;;;5.68;0.88;;;18.00;99.90;;;;;;5098836;28;20111;-71
2022/07/17 07:50:16;;;;;;;3.75;0.90;;;18.00;99.90;;;;;;5098457;28;20048;-71
2022/07/17 07:52:42;;;;;;;5.80;1.10;;;18.20;99.90;;;;;;5133107;27;20333;-71
2022/07/17 07:55:10;;;;;;;9.45;1.17;;;18.50;99.90;;;;;;5099798;28;20043;-71
2022/07/17 07:57:36;;;;;;;1.65;0.60;;;18.60;99.90;;;;;;5099491;28;20043;-71
2022/07/17 08:00:04;;;;;;;5.65;0.95;;;18.60;99.90;;;;;;5098007;28;20051;-71
2022/07/17 08:02:29;;;;;;;5.97;0.90;;;18.60;99.90;;;;;;5098591;28;20050;-70
2022/07/17 08:04:55;;;;;;;6.18;1.00;;;18.40;99.90;;;;;;5099625;28;20040;-71
2022/07/17 08:07:21;;;;;;;7.32;0.90;;;18.50;99.90;;;;;;5098070;28;20055;-71
2022/07/17 08:09:48;;;;;;;6.50;1.10;;;18.50;99.90;;;;;;5098322;28;20071;-70
2022/07/17 08:12:14;;;;;;;4.55;0.88;;;18.60;99.90;;;;;;5099195;28;20051;-69
2022/07/17 08:14:39;;;;;;;9.07;0.90;;;18.80;99.90;;;;;;5099885;28;20039;-71
2022/07/17 08:17:05;;;;;;;9.10;0.90;;;18.90;99.90;;;;;;5104638;28;20047;-71
2022/07/17 08:19:31;;;;;;;5.63;1.10;;;19.00;99.90;;;;;;5098824;28;20040;-70
2022/07/17 08:21:56;;;;;;;7.97;1.25;;;18.80;99.90;;;;;;5098526;28;20044;-73
2022/07/17 08:24:22;;;;;;;5.72;1.13;;;19.10;99.90;;;;;;5098980;28;20487;-69
2022/07/17 08:26:48;;;;;;;7.15;1.08;;;19.30;99.90;;;;;;5098995;28;20040;-67
2022/07/17 08:29:15;;;;;;;6.30;0.98;;;19.40;99.90;;;;;;5098330;28;20051;-69
2022/07/17 08:31:41;;;;;;;6.40;1.10;;;19.50;99.90;;;;;;5098935;28;20046;-69
2022/07/17 08:34:07;;;;;;;4.25;0.88;;;19.60;99.90;;;;;;5098787;28;20078;-69
2022/07/17 08:36:33;;;;;;;6.38;1.10;;;19.70;99.90;;;;;;5098949;28;20068;-70
2022/07/17 08:38:59;;;;;;;4.95;1.00;;;19.90;99.90;;;;;;5098771;28;20073;-70
2022/07/17 08:41:25;;;;;;;5.03;1.13;;;19.70;99.90;;;;;;5098821;28;20040;-69
2022/07/17 08:43:53;;;;;;;4.53;0.90;;;20.00;99.90;;;;;;5098868;28;20425;-69
2022/07/17 08:46:21;;;;;;;3.53;0.70;;;19.80;99.90;;;;;;5098517;28;20111;-69
2022/07/17 08:48:48;;;;;;;10.93;1.48;;;19.80;99.90;;;;;;5097816;28;20040;-69
2022/07/17 08:51:17;;;;;;;5.05;1.13;;;20.10;99.90;;;;;;5097091;28;20416;-70
2022/07/17 08:53:43;;;;;;;5.07;0.90;;;20.10;99.90;;;;;;5098664;28;20117;-69
2022/07/17 08:56:09;;;;;;;4.03;1.13;;;20.10;99.90;;;;;;5098455;28;20448;-91
2022/07/17 08:58:36;;;;;;;6.32;1.08;;;20.10;99.90;;;;;;5097820;28;20036;-70
2022/07/17 09:01:03;;;;;;;3.53;0.55;;;19.80;99.90;;;;;;5098044;28;20358;-71
2022/07/17 09:03:29;;;;;;;9.98;1.13;;;20.20;99.90;;;;;;5098266;28;20040;-70
2022/07/17 09:05:54;;;;;;;4.35;0.80;;;20.70;99.90;;;;;;5098093;28;20043;-69
2022/07/17 09:08:23;;;;;;;4.40;1.00;;;20.80;99.90;;;;;;5098062;28;20051;-69
2022/07/17 09:10:51;;;;;;;4.80;0.80;;;20.80;99.90;;;;;;5098406;28;20337;-69
2022/07/17 09:13:29;;;;;;;5.63;0.60;;;20.80;99.90;;;;;;5098182;28;20075;-71
2022/07/17 09:15:59;;;;;;;6.78;1.00;;;20.70;99.90;;;;;;5098306;28;20054;-71
2022/07/17 09:18:25;;;;;;;5.93;0.90;;;20.90;99.90;;;;;;5098455;28;20040;-71
2022/07/17 09:20:56;;;;;;;4.32;0.75;;;21.40;99.90;;;;;;5098107;28;20040;-70
2022/07/17 09:23:23;;;;;;;7.30;0.90;;;21.30;99.90;;;;;;5097847;28;20044;-70
2022/07/17 09:25:54;;;;;;;6.28;0.93;;;21.40;99.90;;;;;;5097765;28;20375;-71
2022/07/17 09:28:21;;;;;;;1.73;0.60;;;21.50;99.90;;;;;;5097449;28;20429;-69
2022/07/17 09:30:50;;;;;;;4.35;1.08;;;21.60;99.80;;;;;;5097025;28;20047;-70
2022/07/17 09:33:21;;;;;;;4.97;0.90;;;21.70;99.90;;;;;;5096820;28;20320;-69
2022/07/17 09:35:52;;;;;;;8.65;0.95;;;21.80;99.90;;;;;;5098323;28;20087;-90
2022/07/17 09:38:33;;;;;;;5.55;1.00;;;21.70;99.90;;;;;;5080346;28;20040;-88
2022/07/17 09:41:12;;;;;;;3.72;0.90;;;21.20;99.90;;;;;;5079607;28;20130;-85
2022/07/17 09:43:45;;;;;;;7.40;0.90;;;21.10;99.90;;;;;;5079608;28;20040;-87
2022/07/17 09:46:26;;;;;;;2.80;1.00;;;21.00;99.90;;;;;;5079875;28;20047;-93
2022/07/17 09:48:55;;;;;;;7.40;0.90;;;20.70;99.90;;;;;;5079843;28;20036;-84
2022/07/17 09:51:27;;;;;;;3.35;0.93;;;20.80;99.90;;;;;;5096578;28;20040;-94
2022/07/17 09:53:56;;;;;;;4.57;1.23;;;20.90;99.90;;;;;;5130889;27;20136;-89
2022/07/17 09:56:25;;;;;;;4.60;0.93;;;20.50;99.90;;;;;;5096499;28;20036;-92
2022/07/17 09:58:56;;;;;;;3.97;1.00;;;20.40;99.90;;;;;;5079641;28;20417;-90
2022/07/17 10:01:23;;;;;;;4.53;0.95;;;20.70;99.90;;;;;;5080119;28;20145;-90
2022/07/17 10:03:51;;;;;;;3.00;0.77;;;20.80;99.90;;;;;;5080132;28;20147;-90
2022/07/17 10:06:17;;;;;;;3.13;1.02;;;20.90;99.90;;;;;;5079841;28;20444;-71
2022/07/17 10:08:43;;;;;;;3.72;0.98;;;21.00;99.90;;;;;;5097089;28;20036;-70
2022/07/17 10:11:10;;;;;;;2.53;0.68;;;21.50;99.90;;;;;;5097223;28;20109;-70
2022/07/17 10:13:41;;;;;;;3.50;0.88;;;21.90;99.90;;;;;;5097184;28;20355;-70
2022/07/17 10:16:08;;;;;;;3.30;0.80;;;22.40;99.90;;;;;;5097168;28;20119;-70
2022/07/17 10:18:41;;;;;;;3.33;0.88;;;22.70;99.70;;;;;;5096875;28;20359;-70
2022/07/17 10:21:15;;;;;;;5.15;1.00;;;22.90;99.50;;;;;;5096835;28;20101;-83
2022/07/17 10:23:53;;;;;;;4.57;0.90;;;22.80;99.20;;;;;;5095837;28;20493;-83
2022/07/17 10:26:43;;;;;;;2.13;0.80;;;22.40;99.40;;;;;;5078983;28;20044;-72
2022/07/17 10:29:35;;;;;;;3.28;1.17;;;22.00;99.50;;;;;;5095032;28;20060;-70
2022/07/17 10:32:14;;;;;;;5.10;0.85;;;22.60;99.50;;;;;;5096807;28;20040;-70
2022/07/17 10:34:46;;;;;;;3.00;0.90;;;23.00;99.10;;;;;;5096536;28;20040;-70
2022/07/17 10:37:23;;;;;;;2.40;1.00;;;23.20;99.00;;;;;;5096730;28;20036;-71
2022/07/17 10:40:24;;;;;;;4.80;1.10;;;23.60;99.10;;;;;;5096452;28;20433;-71
2022/07/17 10:42:56;;;;;;;4.60;0.88;;;23.70;98.40;;;;;;5096640;28;20040;-70
2022/07/17 10:45:27;;;;;;;3.85;1.00;;;23.60;98.90;;;;;;5096541;28;20421;-70
2022/07/17 10:47:56;;;;;;;3.63;1.00;;;23.60;98.90;;;;;;5096441;28;20425;-70
2022/07/17 10:50:35;;;;;;;4.38;1.30;;;23.50;98.90;;;;;;5096700;28;20040;-70
2022/07/17 10:53:16;;;;;;;2.50;0.98;;;23.70;98.70;;;;;;5096586;28;20044;-69
2022/07/17 10:55:43;;;;;;;3.53;0.88;;;23.10;98.60;;;;;;5096830;28;20137;-69
2022/07/17 10:58:16;;;;;;;4.05;1.00;;;23.20;99.10;;;;;;5096386;28;20077;-69
2022/07/17 11:00:42;;;;;;;7.30;1.25;;;23.80;99.00;;;;;;5095983;28;20058;-93
2022/07/17 11:03:12;;;;;;;3.28;0.93;;;24.40;98.80;;;;;;5078764;28;20075;-70
2022/07/17 11:05:38;;;;;;;3.72;0.70;;;24.30;98.80;;;;;;5096530;28;20051;-70
2022/07/17 11:08:09;;;;;;;5.80;1.02;;;24.70;99.00;;;;;;5096607;28;20040;-71
2022/07/17 11:10:36;;;;;;;3.30;1.15;;;24.80;98.80;;;;;;5096337;28;20382;-70
2022/07/17 11:13:15;;;;;;;4.72;0.90;;;24.90;98.70;;;;;;5095354;28;20093;-70
2022/07/17 11:15:43;;;;;;;3.35;0.80;;;24.80;98.60;;;;;;5096466;28;20376;-70
2022/07/17 11:18:14;;;;;;;4.25;0.85;;;25.00;98.30;;;;;;5096310;28;20036;-70
2022/07/17 11:21:09;;;;;;;4.50;0.90;;;24.90;98.60;;;;;;5096351;28;20055;-69
2022/07/17 11:23:35;;;;;;;4.50;0.90;;;24.80;98.80;;;;;;5091344;28;20048;-70
2022/07/17 11:26:05;;;;;;;3.30;0.75;;;25.00;98.50;;;;;;5096414;28;20040;-72
2022/07/17 11:28:35;;;;;;;2.70;0.90;;;25.20;98.60;;;;;;5098359;28;20040;-69
2022/07/17 11:31:04;;;;;;;3.97;0.93;;;25.00;98.50;;;;;;5095741;28;20048;-69
2022/07/17 11:33:29;;;;;;;2.63;0.90;;;25.20;99.00;;;;;;5096201;28;20036;-69
2022/07/17 11:35:55;;;;;;;4.68;1.08;;;25.60;98.80;;;;;;5095096;28;20044;-69
2022/07/17 11:38:26;;;;;;;4.32;1.15;;;25.80;99.00;;;;;;5096061;28;20044;-69
2022/07/17 11:40:52;;;;;;;4.07;1.02;;;25.80;98.20;;;;;;5096046;28;20051;-68
2022/07/17 11:43:18;;;;;;;5.28;0.90;;;25.80;98.30;;;;;;5096295;28;20067;-68
2022/07/17 11:45:44;;;;;;;2.33;1.10;;;26.00;98.50;;;;;;5095015;28;20425;-68
2022/07/17 11:48:10;;;;;;;1.40;0.70;;;26.10;98.20;;;;;;5096142;28;20088;-69
2022/07/17 11:50:37;;;;;;;5.50;1.00;;;26.20;98.70;;;;;;5095883;28;20428;-68
2022/07/17 11:53:04;;;;;;;1.83;0.93;;;26.60;98.70;;;;;;5095807;28;20036;-68
2022/07/17 11:55:38;;;;;;;3.13;0.88;;;26.90;99.30;;;;;;5096986;28;20040;-68
2022/07/17 11:58:04;;;;;;;2.97;0.85;;;26.80;98.50;;;;;;5099512;28;20064;-70
2022/07/17 12:00:29;;;;;;;3.60;0.90;;;27.10;98.60;;;;;;5099514;28;20440;-70
2022/07/17 12:03:06;;;;;;;4.25;1.00;;;27.20;98.60;;;;;;5099281;28;20042;-71
2022/07/17 12:05:34;;;;;;;3.40;0.93;;;27.30;98.40;;;;;;5099290;28;20169;-69
2022/07/17 12:08:00;;;;;;;2.45;0.93;;;27.00;98.10;;;;;;5099295;28;20496;-70
2022/07/17 12:10:29;;;;;;;3.88;0.90;;;27.20;98.10;;;;;;5099329;28;20056;-69
2022/07/17 12:12:58;;;;;;;3.55;1.00;;;27.30;98.20;;;;;;5099154;28;20125;-70
2022/07/17 12:15:40;;;;;;;4.25;1.20;;;27.60;98.20;;;;;;5099339;28;20036;-69
2022/07/17 12:18:18;;;;;;;2.90;1.13;;;27.70;97.90;;;;;;5099461;28;20047;-69
2022/07/17 12:20:46;;;;;;;4.40;1.23;;;27.80;98.10;;;;;;5099095;28;20122;-69
2022/07/17 12:23:38;;;;;;;14.50;1.27;;;27.70;98.50;;;;;;5099154;28;20126;-69
2022/07/17 12:26:12;;;;;;;2.92;1.10;;;28.00;98.30;;;;;;5098904;28;20048;-69
2022/07/17 12:28:38;;;;;;;3.78;1.30;;;28.20;98.40;;;;;;5098706;28;20070;-69
2022/07/17 12:31:07;;;;;;;3.90;1.15;;;28.50;98.00;;;;;;5098347;28;20452;-69
2022/07/17 12:33:32;;;;;;;2.83;1.13;;;28.60;98.00;;;;;;5098834;28;20065;-69
2022/07/17 12:35:58;;;;;;;3.85;1.05;;;28.40;98.00;;;;;;5099027;28;20119;-69
2022/07/17 12:38:24;;;;;;;3.45;1.23;;;28.70;97.60;;;;;;5098802;28;20043;-71
2022/07/17 12:40:49;;;;;;;4.43;1.20;;;28.40;97.90;;;;;;5098988;28;20454;-69
2022/07/17 12:43:15;;;;;;;3.42;1.20;;;28.40;97.40;;;;;;5097713;28;20040;-70
2022/07/17 12:45:41;;;;;;;3.08;1.52;;;28.50;97.40;;;;;;5098813;28;20417;-70